x

Buoy B01 - Western Maine Shelf (44030) Wave Buoy

11:04 - Mon 16th Jan 2017 All times are EST. -5 hours from GMT.

  • Sig Wave height 1.6ft
  • Peak Period 3s
  • Wind
    20mph, 22mph gusts
  • Sea Temp 42°f
  • Aire Temp 33°f
  • Sea Pressure 1027.5mb
  • Buoy B01 - Western Maine Shelf
  • Buoy B01 - Western Maine Shelf

More Historic Weather Station data

Upgrade to MSW Pro to gain access to the past 30 days of data for over 8000 Wavebouys and Weather Stations around the globe.

Join Pro

Comparision Forecast

View Surf forecast
   
lun 01/16 11:04 1.6ft 3s 20 22 mph 1027.5mb 42f 33f
10:04 1.3ft 3s 18 20 mph 1028.9mb 42f 30f
9:04 1.3ft 2s 13 16 mph 1029.5mb 42f 28f
8:04 1.3ft 11s 11 13 mph 1029.5mb 42f 28f
7:04 1ft 5s 11 13 mph 1029.9mb 42f 28f
6:04 1.3ft 4s 9 11 mph 1029.6mb 42f 28f
5:04 1.3ft 4s 9 11 mph 1029.9mb 43f 28f
4:04 1.3ft 11s 9 11 mph 1029.7mb 42f 28f
3:04 1.6ft 11s 7 9 mph 1029.6mb 42f 29f
2:04 1.6ft 11s 2 4 mph 1029.8mb 42f 29f
1:04 1.3ft 4s 2 4 mph 1029.6mb 42f 29f
12:04 1.3ft 4s 4 7 mph 1029.3mb 42f 29f
dom 01/15 11:04 1.6ft 4s 7 9 mph 1029.1mb 42f 29f
10:04 1.6ft 4s 9 11 mph 1029mb 42f 29f
9:04 2.5ft 11s 11 13 mph 1029mb 42f 30f
8:04 1.6ft 3s 13 18 mph 1028.6mb 42f 30f
7:04 2ft 3s 18 22 mph 1028.2mb 42f 31f
6:04 2ft 3s 22 27 mph 1027.6mb 42f 32f
5:04 2ft 3s 20 27 mph 1026.5mb 42f 33f
4:04 2ft 3s 20 22 mph 1025.7mb 42f 33f
3:04 1.6ft 3s 18 22 mph 1024.5mb 42f 34f
2:04 1.6ft 3s 18 20 mph 1023.9mb 42f 33f
1:04 1.3ft 3s 13 16 mph 1024mb 43f 32f
12:04 1.6ft 3s 16 20 mph 1024.1mb 43f 31f
11:04 2.5ft 3s 20 25 mph 1024.4mb 43f 31f
10:04 2.5ft 3s 20 25 mph 1024.5mb 43f 31f
9:04 2.5ft 3s 18 22 mph 1024.5mb 43f 29f
8:04 2.5ft 3s 20 22 mph 1023.6mb 42f 29f
7:04 2.5ft 3s 20 25 mph 1022.9mb 42f 30f
6:04 2.5ft 3s 20 25 mph 1022.4mb 42f 30f
5:04 2.5ft 3s 18 22 mph 1022.3mb 42f 29f
4:04 2.5ft 5s 20 22 mph 1022.1mb 42f 30f
3:04 2.5ft 5s 18 22 mph 1022.1mb 42f 30f
2:04 3ft 5s 18 25 mph 1022.6mb 42f 31f
1:04 3ft 5s 20 22 mph 1022.7mb 42f 31f
12:04 3.5ft 4s 20 25 mph 1023.4mb 42f 32f
sáb 01/14 11:04 3.5ft 5s 20 25 mph 1024.5mb 42f 32f
10:04 3.5ft 4s 22 29 mph 1025.7mb 42f 32f
9:04 2.5ft 4s 22 25 mph 1026.1mb 42f 32f
8:04 3.5ft 3s 20 25 mph 1027.1mb 42f 32f
7:04 2.5ft 11s 18 22 mph 1027.7mb 42f 31f
6:04 2ft 11s 13 16 mph 1029.5mb 41f 30f
5:04 1.3ft 11s 9 11 mph 1030.6mb 41f 28f
4:04 1.6ft 11s 9 11 mph 1031.5mb 41f 26f
3:04 1.3ft 11s 7 11 mph 1032.1mb 41f 25f
2:04 1.3ft 11s 9 13 mph 1033.3mb 42f 23f
1:04 1.6ft 11s 7 9 mph 1033.9mb 42f 21f
12:04 1.6ft 11s 4 9 mph 1035.7mb 42f 20f
11:04 1.6ft 11s 7 11 mph 1037.5mb 42f 19f
10:04 2ft 11s 4 9 mph 1038.7mb 42f 19f
9:04 2ft 11s 4 9 mph 1039.4mb 43f 20f
8:04 2ft 11s 7 11 mph 1039.4mb 42f 19f
7:04 2.5ft 11s 9 13 mph 1039.3mb 42f 18f
6:04  -   -  11 16 mph 1039.4mb 42f 19f
5:04 1.6ft 4s 9 13 mph 1039.3mb 42f 19f
4:04 3.5ft 11s 11 16 mph 1039.2mb 42f 20f
3:04 3ft 11s 16 20 mph 1039.1mb 42f 21f
2:04  -   -  18 22 mph 1038.6mb 42f 22f
1:04 2.5ft 3s 18 22 mph 1038mb 42f 23f
12:04 2.5ft 4s 18 22 mph 1037.7mb 42f 24f
vie 01/13 11:04 3.5ft 4s 25 29 mph 1037.1mb 42f 25f
10:04 3ft 4s 27 31 mph 1036.7mb 43f 26f
9:04 3.5ft 4s 27 31 mph 1036.2mb 43f 28f
8:04 4ft 5s 25 36 mph 1035.4mb 43f 29f
7:04 3.5ft 5s 29 36 mph 1034.5mb 42f 31f
6:04 4.5ft 4s 29 36 mph 1033mb 42f 33f
5:04 4ft 4s 29 36 mph 1031.4mb 42f 35f
4:04 3.5ft 4s 27 36 mph 1029.5mb 42f 37f
3:04 5ft 11s 27 34 mph 1027.8mb 42f 38f
2:04 3.5ft 4s 25 31 mph 1026.3mb 42f 39f
1:04 3.5ft 4s 25 29 mph 1024.9mb 42f 40f
12:04 3.5ft 4s 20 27 mph 1023.9mb 41f 41f
11:04 3.5ft 4s 22 27 mph 1023.6mb 41f 41f
10:04  -   -  27 31 mph 1023mb 41f 41f
9:04 4.5ft 8s 22 27 mph 1022.2mb 41f 42f
8:04 4.5ft 3s 22 27 mph 1021.4mb 41f 44f
7:04  -   -  22 34 mph 1019.8mb 41f 45f
6:04  -   -  13 20 mph 1018.5mb 41f 46f
5:04 6.5ft 8s 16 22 mph 1017.1mb 41f 47f
4:04 6ft 11s 11 16 mph 1015.8mb 41f 48f
3:04 5ft 11s 11 13 mph 1014.7mb 41f 49f
2:04 5.5ft 11s 16 18 mph 1014.1mb 41f 50f
1:04 5ft 11s 13 16 mph 1012.7mb 42f 47f
12:04 6ft 11s 16
mph
1012.1mb 41f 47f
jue 01/12 11:04 5ft 6s 18 20 mph 1011.7mb 41f 49f
10:04 6ft 6s 18 22 mph 1011.2mb 41f 47f
9:04 6ft 8s 20 25 mph 1011.1mb 41f 47f
8:04 5.5ft 6s 20 25 mph 1011mb 41f 47f
7:04 6ft 8s 11 13 mph 1012.5mb 41f 46f
6:04 6ft 8s 16 18 mph 1012.2mb 41f 47f